Time;durP1;ratioP1;P1;durP2;ratioP2;P2;SDS_P1;SDS_P2;PMS_P1;PMS_P2;Temp;Humidity;BMP_temperature;BMP_pressure;BME280_temperature;BME280_humidity;BME280_pressure;Samples;Min_cycle;Max_cycle;Signal;HPM_P1;HPM_P2
2021/12/08 00:00:30;;;;;;;8.33;5.40;;;3.20;99.90;;;;;;5038017;28;20848;-46
2021/12/08 00:02:59;;;;;;;14.27;4.40;;;3.20;99.90;;;;;;5038466;28;20726;-46
2021/12/08 00:05:27;;;;;;;10.93;4.70;;;3.20;99.90;;;;;;5068069;28;20226;-47
2021/12/08 00:07:54;;;;;;;5.57;4.37;;;3.20;99.90;;;;;;5065152;28;20205;-46
2021/12/08 00:10:50;;;;;;;12.03;4.80;;;3.20;99.90;;;;;;5055767;28;20759;-46
2021/12/08 00:13:15;;;;;;;12.10;4.73;;;3.20;99.90;;;;;;5061646;28;20225;-46
2021/12/08 00:15:44;;;;;;;8.70;4.73;;;3.20;99.90;;;;;;5058285;28;20202;-46
2021/12/08 00:18:16;;;;;;;7.57;5.03;;;3.30;99.90;;;;;;5073208;28;20332;-46
2021/12/08 00:20:46;;;;;;;11.90;5.03;;;3.20;99.90;;;;;;5043984;28;20772;-46
2021/12/08 00:23:15;;;;;;;8.67;4.57;;;3.20;99.90;;;;;;5064686;28;20693;-46
2021/12/08 00:25:43;;;;;;;7.43;4.33;;;3.30;99.90;;;;;;5045642;28;20265;-47
2021/12/08 00:28:11;;;;;;;8.87;4.30;;;3.30;99.90;;;;;;5062725;28;20256;-46
2021/12/08 00:30:41;;;;;;;10.07;4.40;;;3.30;99.90;;;;;;5058354;28;20210;-47
2021/12/08 00:33:09;;;;;;;8.17;4.40;;;3.30;99.90;;;;;;5055673;28;20227;-46
2021/12/08 00:35:40;;;;;;;8.13;4.17;;;3.30;99.90;;;;;;5046199;28;20222;-46
2021/12/08 00:38:08;;;;;;;10.13;4.57;;;3.30;99.90;;;;;;5061578;28;20191;-46
2021/12/08 00:40:35;;;;;;;9.40;4.70;;;3.30;99.90;;;;;;5063019;28;20196;-46
2021/12/08 00:43:04;;;;;;;7.97;4.03;;;3.30;99.90;;;;;;5058028;28;20226;-47
2021/12/08 00:45:31;;;;;;;6.97;3.77;;;3.30;99.90;;;;;;5055242;28;20844;-46
2021/12/08 00:47:58;;;;;;;8.93;4.37;;;3.30;99.90;;;;;;5048842;28;20279;-46
2021/12/08 00:50:27;;;;;;;9.23;4.20;;;3.20;99.90;;;;;;5070357;28;20204;-47
2021/12/08 00:52:57;;;;;;;8.97;4.27;;;3.30;99.90;;;;;;5038199;28;20230;-46
2021/12/08 00:55:24;;;;;;;7.70;4.10;;;3.30;99.90;;;;;;5051232;28;20221;-46
2021/12/08 00:57:51;;;;;;;6.73;4.20;;;3.30;99.90;;;;;;5053280;28;20909;-46
2021/12/08 01:00:23;;;;;;;8.30;4.90;;;3.30;99.90;;;;;;5062417;28;20213;-47
2021/12/08 01:02:51;;;;;;;7.77;4.27;;;3.20;99.90;;;;;;5043980;28;20228;-47
2021/12/08 01:05:22;;;;;;;11.90;4.57;;;3.20;99.90;;;;;;5053336;28;20208;-47
2021/12/08 01:07:49;;;;;;;6.13;4.00;;;3.20;99.90;;;;;;5040530;28;20366;-46
2021/12/08 01:10:21;;;;;;;6.70;4.30;;;3.20;99.90;;;;;;5043075;28;20762;-47
2021/12/08 01:12:48;;;;;;;10.60;4.87;;;3.20;99.90;;;;;;5056568;28;20208;-41
2021/12/08 01:15:16;;;;;;;8.80;4.17;;;3.20;99.90;;;;;;5066684;28;20213;-41
2021/12/08 01:17:42;;;;;;;6.37;4.83;;;3.20;99.90;;;;;;5041720;28;20207;-41
2021/12/08 01:20:13;;;;;;;5.97;3.77;;;3.20;99.90;;;;;;5060666;28;20214;-41
2021/12/08 01:22:42;;;;;;;8.30;5.10;;;3.20;99.90;;;;;;5039671;28;20233;-41
2021/12/08 01:25:09;;;;;;;9.30;4.73;;;3.20;99.90;;;;;;5057065;28;20215;-41
2021/12/08 01:27:38;;;;;;;9.80;4.87;;;3.20;99.90;;;;;;5068137;28;20204;-41
2021/12/08 01:30:07;;;;;;;10.37;5.73;;;3.20;99.90;;;;;;5060340;28;20268;-41
2021/12/08 01:32:34;;;;;;;12.13;5.20;;;3.20;99.90;;;;;;5052600;28;20336;-41
2021/12/08 01:35:04;;;;;;;9.80;4.70;;;3.20;99.90;;;;;;5056130;28;20216;-41
2021/12/08 01:37:31;;;;;;;7.50;4.83;;;3.20;99.90;;;;;;5057163;28;21175;-40
2021/12/08 01:39:58;;;;;;;9.23;4.77;;;3.20;99.90;;;;;;5036934;28;20267;-40
2021/12/08 01:42:30;;;;;;;11.90;4.43;;;3.20;99.90;;;;;;5064079;28;20230;-40
2021/12/08 01:47:43;;;;;;;8.40;4.60;;;3.20;99.90;;;;;;5060030;28;20356;-40
2021/12/08 01:50:11;;;;;;;9.97;4.60;;;3.20;99.90;;;;;;5053956;28;20210;-40
2021/12/08 01:52:39;;;;;;;6.30;4.27;;;3.20;99.90;;;;;;5067784;28;20603;-40
2021/12/08 01:55:09;;;;;;;7.13;4.50;;;3.20;99.90;;;;;;5046613;28;20214;-40
2021/12/08 01:57:37;;;;;;;10.57;4.90;;;3.10;99.90;;;;;;5060638;28;20711;-40
2021/12/08 02:00:10;;;;;;;7.60;5.23;;;3.20;99.90;;;;;;5046337;28;20219;-40
2021/12/08 02:02:37;;;;;;;8.67;4.47;;;3.20;99.90;;;;;;5061470;28;20231;-40
2021/12/08 02:05:05;;;;;;;10.33;4.70;;;3.20;99.90;;;;;;5057264;28;20203;-40
2021/12/08 02:07:33;;;;;;;7.93;4.70;;;3.20;99.90;;;;;;5041840;28;20676;-40
2021/12/08 02:10:00;;;;;;;8.03;4.97;;;3.20;99.90;;;;;;5064325;28;20334;-40
2021/12/08 02:12:29;;;;;;;8.23;4.63;;;3.10;99.90;;;;;;5055070;28;20222;-40
2021/12/08 02:14:58;;;;;;;10.97;5.60;;;3.10;99.90;;;;;;5043140;28;20360;-40
2021/12/08 02:17:27;;;;;;;9.07;5.07;;;3.10;99.90;;;;;;5056481;28;20589;-40
2021/12/08 02:19:54;;;;;;;8.13;4.83;;;3.10;99.90;;;;;;5051420;28;21524;-41
2021/12/08 02:22:22;;;;;;;9.07;4.90;;;3.10;99.90;;;;;;5058818;28;20588;-40
2021/12/08 02:24:49;;;;;;;9.60;5.07;;;3.10;99.90;;;;;;5070144;28;20219;-40
2021/12/08 02:27:16;;;;;;;13.67;5.40;;;3.10;99.90;;;;;;5040423;28;20214;-40
2021/12/08 02:29:49;;;;;;;9.27;5.23;;;3.10;99.90;;;;;;5062955;28;20201;-46
2021/12/08 02:46:34;;;;;;;6.60;5.10;;;3.10;99.90;;;;;;5048191;28;20209;-46
2021/12/08 02:48:58;;;;;;;7.23;4.53;;;3.00;99.90;;;;;;5039769;28;20219;-47
2021/12/08 02:51:25;;;;;;;8.50;5.20;;;2.90;99.90;;;;;;5062068;28;20208;-46
2021/12/08 02:53:53;;;;;;;10.20;4.40;;;2.90;99.90;;;;;;5055882;28;21004;-46
2021/12/08 02:56:20;;;;;;;6.80;4.57;;;2.80;99.90;;;;;;5066419;28;20205;-46
2021/12/08 02:58:48;;;;;;;9.03;4.70;;;2.80;99.90;;;;;;5039931;28;20213;-46
2021/12/08 03:01:16;;;;;;;9.40;4.70;;;2.80;99.90;;;;;;5046666;28;20657;-47
2021/12/08 03:03:43;;;;;;;8.90;4.73;;;2.70;99.90;;;;;;5034773;28;20235;-45
2021/12/08 03:06:12;;;;;;;6.00;4.00;;;2.70;99.90;;;;;;5050490;28;20771;-45
2021/12/08 03:08:39;;;;;;;6.03;4.27;;;2.60;99.90;;;;;;5056775;28;20211;-45
2021/12/08 03:11:08;;;;;;;8.47;4.87;;;2.60;99.90;;;;;;5046399;28;20214;-41
2021/12/08 03:13:40;;;;;;;7.53;4.20;;;2.60;99.90;;;;;;5041817;28;20228;-41
2021/12/08 03:16:07;;;;;;;9.27;4.77;;;2.50;99.90;;;;;;5058613;28;20761;-41
2021/12/08 03:18:36;;;;;;;6.47;4.13;;;2.60;99.90;;;;;;5034162;28;20229;-41
2021/12/08 03:21:06;;;;;;;6.50;4.20;;;2.50;99.90;;;;;;5047667;28;20299;-41
2021/12/08 03:23:45;;;;;;;7.43;3.87;;;2.50;99.90;;;;;;5052038;28;20220;-47
2021/12/08 03:26:13;;;;;;;7.80;3.97;;;2.60;99.90;;;;;;5066387;28;20205;-47
2021/12/08 03:28:47;;;;;;;9.47;4.30;;;2.50;99.90;;;;;;5042526;28;20208;-47
2021/12/08 03:31:18;;;;;;;5.97;4.00;;;2.50;99.90;;;;;;5052321;28;20300;-46
2021/12/08 03:33:46;;;;;;;5.77;3.70;;;2.50;99.90;;;;;;5054501;28;20224;-47
2021/12/08 03:36:13;;;;;;;7.57;4.87;;;2.50;99.90;;;;;;5050210;28;20215;-46
2021/12/08 03:38:44;;;;;;;10.63;3.73;;;2.50;99.90;;;;;;5037335;28;20204;-47
2021/12/08 03:41:12;;;;;;;8.40;3.77;;;2.50;99.90;;;;;;5067454;28;20208;-46
2021/12/08 03:43:40;;;;;;;5.53;3.50;;;2.50;99.90;;;;;;5052047;28;20220;-47
2021/12/08 03:46:11;;;;;;;10.23;3.97;;;2.40;99.90;;;;;;5048426;28;20227;-46
2021/12/08 03:48:46;;;;;;;7.93;3.70;;;2.50;99.90;;;;;;5044831;28;22418;-46
2021/12/08 03:51:13;;;;;;;5.90;3.27;;;2.40;99.90;;;;;;5067266;28;20200;-46
2021/12/08 03:53:40;;;;;;;4.77;3.43;;;2.40;99.90;;;;;;5039664;28;20231;-46
2021/12/08 03:56:08;;;;;;;4.43;3.37;;;2.40;99.90;;;;;;5065054;28;20223;-47
2021/12/08 03:58:36;;;;;;;5.87;3.60;;;2.40;99.90;;;;;;5058603;28;20609;-46
2021/12/08 04:01:05;;;;;;;4.37;3.40;;;2.40;99.90;;;;;;5037178;28;20228;-47
2021/12/08 04:03:33;;;;;;;4.17;3.20;;;2.40;99.90;;;;;;5058708;28;20240;-47
2021/12/08 04:06:03;;;;;;;5.20;3.30;;;2.40;99.90;;;;;;5039931;28;22280;-46
2021/12/08 04:08:40;;;;;;;6.73;3.27;;;2.40;99.90;;;;;;5061809;28;20911;-46
2021/12/08 04:11:09;;;;;;;4.43;2.83;;;2.40;99.90;;;;;;5053812;28;20713;-46
2021/12/08 04:13:40;;;;;;;6.47;3.10;;;2.40;99.90;;;;;;5054853;28;20230;-46
2021/12/08 04:16:08;;;;;;;6.13;3.37;;;2.40;99.90;;;;;;5041284;28;20208;-46
2021/12/08 04:18:35;;;;;;;6.73;3.10;;;2.40;99.90;;;;;;5068935;28;20809;-46
2021/12/08 04:21:03;;;;;;;5.30;3.43;;;2.40;99.90;;;;;;5041476;28;20238;-46
2021/12/08 04:23:35;;;;;;;5.43;3.17;;;2.40;99.90;;;;;;5061351;28;20694;-46
2021/12/08 04:26:04;;;;;;;5.53;3.20;;;2.30;99.90;;;;;;5056225;28;20224;-46
2021/12/08 04:28:33;;;;;;;4.27;3.10;;;2.40;99.90;;;;;;5046576;28;20215;-46
2021/12/08 04:31:07;;;;;;;7.20;2.80;;;2.40;99.90;;;;;;5043866;28;20893;-46
2021/12/08 04:33:36;;;;;;;5.33;3.30;;;2.40;99.90;;;;;;5066185;28;20226;-46
2021/12/08 04:36:05;;;;;;;4.77;2.83;;;2.50;99.90;;;;;;5048238;28;20311;-47
2021/12/08 04:38:38;;;;;;;3.33;2.73;;;2.50;99.90;;;;;;5053300;28;20598;-47
2021/12/08 04:41:09;;;;;;;3.60;3.20;;;2.50;99.90;;;;;;5047913;28;20212;-47
2021/12/08 04:43:49;;;;;;;6.97;3.23;;;2.50;99.90;;;;;;5053823;28;20235;-47
2021/12/08 04:46:30;;;;;;;5.43;3.30;;;2.50;99.90;;;;;;5062741;28;20208;-47
2021/12/08 04:49:19;;;;;;;3.60;2.63;;;2.50;99.90;;;;;;5045583;28;20789;-46
2021/12/08 04:51:53;;;;;;;4.27;3.10;;;2.50;99.90;;;;;;5036741;28;20213;-47
2021/12/08 05:00:24;;;;;;;3.87;3.13;;;2.50;99.90;;;;;;5048696;28;23518;-46
2021/12/08 05:08:43;;;;;;;4.07;3.03;;;2.60;99.90;;;;;;5046492;28;20416;-49
2021/12/08 05:11:17;;;;;;;3.93;2.63;;;2.60;99.90;;;;;;5075291;28;20201;-48
2021/12/08 05:13:48;;;;;;;4.60;3.23;;;2.60;99.90;;;;;;5056807;28;20755;-48
2021/12/08 05:16:16;;;;;;;4.90;3.10;;;2.60;99.90;;;;;;5055970;28;20228;-43
2021/12/08 05:18:46;;;;;;;4.90;2.77;;;2.70;99.90;;;;;;5051397;28;20197;-43
2021/12/08 05:21:18;;;;;;;5.00;3.13;;;2.60;99.90;;;;;;5066172;28;20273;-43
2021/12/08 05:23:48;;;;;;;6.43;3.30;;;2.70;99.90;;;;;;5044079;28;20243;-43
2021/12/08 05:26:21;;;;;;;4.77;3.30;;;2.70;99.90;;;;;;5072974;28;20854;-43
2021/12/08 05:28:49;;;;;;;5.03;2.90;;;2.70;99.90;;;;;;5035856;28;20984;-43
2021/12/08 05:31:19;;;;;;;8.63;3.10;;;2.70;99.90;;;;;;5069992;28;20200;-43
2021/12/08 05:33:47;;;;;;;4.50;3.00;;;2.70;99.90;;;;;;5030227;28;20434;-43
2021/12/08 05:36:16;;;;;;;4.73;2.90;;;2.80;99.90;;;;;;5055780;28;20421;-43
2021/12/08 05:38:43;;;;;;;3.90;3.07;;;2.80;99.90;;;;;;5024731;28;20204;-43
2021/12/08 05:41:14;;;;;;;3.47;2.83;;;2.80;99.90;;;;;;5044582;28;20226;-43
2021/12/08 05:43:41;;;;;;;5.50;3.20;;;2.80;99.90;;;;;;5067055;28;20763;-43
2021/12/08 05:46:11;;;;;;;6.63;3.50;;;2.80;99.90;;;;;;5037434;28;20211;-42
2021/12/08 05:48:38;;;;;;;4.50;3.57;;;2.80;99.90;;;;;;5041893;28;20212;-43
2021/12/08 05:51:09;;;;;;;7.07;3.20;;;2.80;99.90;;;;;;5045342;28;20210;-42
2021/12/08 05:53:40;;;;;;;5.37;3.17;;;2.80;99.90;;;;;;5033547;28;20254;-42
2021/12/08 05:56:08;;;;;;;6.20;3.27;;;2.80;99.90;;;;;;5056784;28;20942;-42
2021/12/08 05:58:37;;;;;;;5.60;3.60;;;2.80;99.90;;;;;;5061597;28;20202;-41
2021/12/08 06:01:11;;;;;;;7.07;3.40;;;2.80;99.90;;;;;;5049090;28;20207;-42
2021/12/08 06:03:39;;;;;;;4.43;3.30;;;2.80;99.90;;;;;;5044724;28;20233;-42
2021/12/08 06:06:08;;;;;;;5.67;3.47;;;2.80;99.90;;;;;;5029414;28;20984;-42
2021/12/08 06:08:37;;;;;;;4.77;3.53;;;2.90;99.90;;;;;;5020206;28;20295;-42
2021/12/08 06:11:06;;;;;;;5.10;3.33;;;2.90;99.90;;;;;;5049002;28;20205;-41
2021/12/08 06:13:33;;;;;;;8.37;4.03;;;2.90;99.90;;;;;;5047861;28;20418;-42
2021/12/08 06:16:03;;;;;;;5.07;3.60;;;2.90;99.90;;;;;;5049383;28;20201;-42
2021/12/08 06:18:36;;;;;;;5.10;3.60;;;2.90;99.90;;;;;;5031124;28;20847;-43
2021/12/08 06:21:04;;;;;;;4.50;3.43;;;2.90;99.90;;;;;;5033998;28;20484;-43
2021/12/08 06:23:32;;;;;;;4.83;3.30;;;3.00;99.90;;;;;;5017521;28;20632;-43
2021/12/08 06:26:00;;;;;;;6.33;3.80;;;2.90;99.90;;;;;;5055655;28;20258;-43
2021/12/08 06:28:27;;;;;;;5.13;3.47;;;3.00;99.90;;;;;;5041478;28;20205;-43
2021/12/08 06:30:54;;;;;;;8.07;3.60;;;3.00;99.90;;;;;;5064870;28;20202;-43
2021/12/08 06:33:22;;;;;;;4.07;3.43;;;3.00;99.90;;;;;;5052116;28;20487;-43
2021/12/08 06:35:53;;;;;;;7.63;3.70;;;3.00;99.90;;;;;;5034612;28;20204;-43
2021/12/08 06:38:21;;;;;;;4.80;3.53;;;3.00;99.90;;;;;;5036311;28;20582;-43
2021/12/08 06:40:53;;;;;;;6.37;3.83;;;3.00;99.90;;;;;;5059593;28;20455;-43
2021/12/08 06:43:25;;;;;;;4.37;3.03;;;3.10;99.90;;;;;;5048167;28;20427;-43
2021/12/08 06:45:55;;;;;;;6.37;3.73;;;3.10;99.90;;;;;;5064156;28;20230;-41
2021/12/08 06:48:26;;;;;;;4.73;3.07;;;3.10;99.90;;;;;;5051762;28;20214;-43
2021/12/08 06:50:56;;;;;;;6.53;3.20;;;3.10;99.90;;;;;;5045568;28;20218;-43
2021/12/08 06:53:24;;;;;;;4.83;2.80;;;3.10;99.90;;;;;;5035570;28;20302;-43
2021/12/08 06:55:54;;;;;;;4.90;3.13;;;3.20;99.90;;;;;;5058654;28;20201;-41
2021/12/08 06:58:28;;;;;;;9.30;2.97;;;3.20;99.90;;;;;;5055542;28;20717;-46
2021/12/08 07:01:11;;;;;;;6.60;3.53;;;3.20;99.90;;;;;;5057122;28;20408;-46
2021/12/08 07:03:46;;;;;;;5.40;3.00;;;3.20;99.90;;;;;;5052683;28;20261;-46
2021/12/08 07:06:41;;;;;;;4.30;2.87;;;3.20;99.90;;;;;;5045805;28;20333;-47
2021/12/08 07:09:11;;;;;;;6.60;3.37;;;3.20;99.90;;;;;;5065399;28;20206;-42
2021/12/08 07:11:40;;;;;;;6.43;3.13;;;3.20;99.90;;;;;;5050230;28;20204;-43
2021/12/08 07:14:10;;;;;;;4.73;2.93;;;3.20;99.90;;;;;;5067228;28;20234;-42
2021/12/08 07:16:42;;;;;;;4.30;3.20;;;3.30;99.90;;;;;;5058410;28;20215;-42
2021/12/08 07:19:22;;;;;;;7.37;3.50;;;3.30;99.90;;;;;;5043061;28;20667;-42
2021/12/08 07:21:49;;;;;;;4.87;3.20;;;3.30;99.90;;;;;;5047981;28;20226;-42
2021/12/08 07:24:20;;;;;;;5.37;3.07;;;3.30;99.90;;;;;;5058693;28;20231;-42
2021/12/08 07:26:50;;;;;;;7.50;3.37;;;3.30;99.90;;;;;;5033083;28;20491;-42
2021/12/08 07:29:23;;;;;;;6.93;3.17;;;3.30;99.90;;;;;;5062247;28;20216;-42
2021/12/08 07:31:53;;;;;;;8.93;3.60;;;3.30;99.90;;;;;;5045501;28;20212;-42
2021/12/08 07:34:22;;;;;;;6.70;3.23;;;3.30;99.90;;;;;;5056036;28;20751;-42
2021/12/08 07:36:51;;;;;;;6.57;3.40;;;3.30;99.90;;;;;;5046601;28;20387;-42
2021/12/08 07:39:21;;;;;;;6.27;3.47;;;3.30;99.90;;;;;;5053472;28;20210;-42
2021/12/08 07:41:53;;;;;;;5.23;3.20;;;3.30;99.90;;;;;;5049769;28;20211;-42
2021/12/08 07:44:23;;;;;;;5.23;2.97;;;3.30;99.90;;;;;;5045311;28;20242;-42
2021/12/08 07:46:54;;;;;;;5.03;2.63;;;3.30;99.90;;;;;;5059207;28;20208;-42
2021/12/08 07:49:25;;;;;;;5.60;3.27;;;3.30;99.90;;;;;;5057113;28;20215;-42
2021/12/08 07:51:58;;;;;;;5.43;3.10;;;3.40;99.90;;;;;;5064414;28;20413;-42
2021/12/08 07:54:25;;;;;;;6.13;3.03;;;3.40;99.90;;;;;;5049241;28;20223;-42
2021/12/08 07:56:54;;;;;;;4.20;3.07;;;3.40;99.90;;;;;;5045904;28;20245;-42
2021/12/08 07:59:23;;;;;;;8.37;3.10;;;3.40;99.90;;;;;;5062250;28;20203;-43
2021/12/08 08:01:53;;;;;;;3.07;2.50;;;3.50;99.90;;;;;;5064263;28;20211;-43
2021/12/08 08:04:23;;;;;;;8.53;3.03;;;3.50;99.90;;;;;;5046758;28;20232;-42
2021/12/08 08:06:53;;;;;;;5.47;3.53;;;3.50;99.90;;;;;;5056116;28;20471;-42
2021/12/08 08:09:24;;;;;;;7.93;3.10;;;3.50;99.90;;;;;;5041255;28;20217;-42
2021/12/08 08:11:57;;;;;;;4.63;3.13;;;3.50;99.90;;;;;;5049056;28;20465;-42
2021/12/08 08:14:28;;;;;;;4.83;3.13;;;3.50;99.90;;;;;;5045738;28;20227;-42
2021/12/08 08:16:57;;;;;;;6.73;2.90;;;3.50;99.90;;;;;;5067187;28;20211;-42
2021/12/08 08:19:28;;;;;;;8.43;2.93;;;3.50;99.90;;;;;;5047188;28;20230;-42
2021/12/08 08:21:59;;;;;;;5.33;3.03;;;3.50;99.90;;;;;;5041726;28;20331;-42
2021/12/08 08:24:26;;;;;;;8.57;3.43;;;3.50;99.90;;;;;;5042566;28;20803;-42
2021/12/08 08:26:56;;;;;;;7.20;3.37;;;3.50;99.90;;;;;;5060132;28;20241;-42
2021/12/08 08:29:25;;;;;;;6.07;3.07;;;3.50;99.90;;;;;;5038719;28;23107;-42
2021/12/08 08:31:59;;;;;;;4.27;3.00;;;3.60;99.90;;;;;;5046820;28;20213;-42
2021/12/08 08:34:27;;;;;;;3.90;3.03;;;3.60;99.90;;;;;;5030269;28;20416;-42
2021/12/08 08:36:54;;;;;;;4.60;2.63;;;3.60;99.90;;;;;;5036167;28;20233;-42
2021/12/08 08:39:24;;;;;;;6.27;2.90;;;3.60;99.90;;;;;;5022669;28;20571;-42
2021/12/08 08:41:59;;;;;;;6.47;2.93;;;3.60;99.90;;;;;;5016611;28;20794;-42
2021/12/08 08:44:31;;;;;;;4.30;2.40;;;3.60;99.90;;;;;;5046911;28;20671;-43
2021/12/08 08:47:05;;;;;;;5.47;2.77;;;3.60;99.90;;;;;;5038801;28;21170;-43
2021/12/08 08:49:34;;;;;;;6.93;3.30;;;3.70;99.90;;;;;;5048738;28;20425;-42
2021/12/08 08:52:09;;;;;;;4.60;3.40;;;3.70;99.90;;;;;;5025621;28;20577;-42
2021/12/08 08:54:40;;;;;;;6.97;2.93;;;3.70;99.90;;;;;;5045481;28;20226;-43
2021/12/08 08:57:14;;;;;;;3.70;2.80;;;3.70;99.90;;;;;;5030085;28;20219;-43
2021/12/08 08:59:47;;;;;;;4.33;3.17;;;3.80;99.90;;;;;;5032527;28;20203;-49
2021/12/08 09:02:19;;;;;;;5.27;2.93;;;3.70;99.90;;;;;;5038605;28;20694;-49
2021/12/08 09:04:49;;;;;;;7.37;3.13;;;3.80;99.90;;;;;;5042902;28;20234;-48
2021/12/08 09:07:21;;;;;;;7.07;3.03;;;3.80;99.90;;;;;;5040904;28;20246;-48
2021/12/08 09:09:50;;;;;;;4.50;2.37;;;3.90;99.90;;;;;;5042461;28;20211;-42
2021/12/08 09:12:21;;;;;;;6.47;2.50;;;3.90;99.90;;;;;;5035628;28;20698;-42
2021/12/08 09:14:54;;;;;;;3.20;2.80;;;3.90;99.90;;;;;;5043525;28;20813;-42
2021/12/08 09:17:27;;;;;;;6.63;2.63;;;4.00;99.90;;;;;;5039621;28;20211;-48
2021/12/08 09:19:59;;;;;;;6.93;2.60;;;4.00;99.90;;;;;;5044927;28;20275;-43
2021/12/08 09:22:31;;;;;;;3.00;2.57;;;4.00;99.90;;;;;;5029454;28;21001;-42
2021/12/08 09:25:01;;;;;;;5.00;2.77;;;4.00;99.90;;;;;;5043236;28;20278;-47
2021/12/08 09:27:32;;;;;;;7.23;3.10;;;4.00;99.90;;;;;;5026374;28;20204;-46
2021/12/08 09:30:06;;;;;;;3.53;2.70;;;4.10;99.90;;;;;;5042192;28;20578;-47
2021/12/08 09:32:38;;;;;;;4.70;2.90;;;4.10;99.90;;;;;;5044780;28;20219;-46
2021/12/08 09:35:11;;;;;;;4.60;2.57;;;4.10;99.90;;;;;;5059152;28;20232;-46
2021/12/08 09:37:44;;;;;;;3.37;2.77;;;4.10;99.90;;;;;;5042566;28;20205;-47
2021/12/08 09:40:17;;;;;;;3.27;2.53;;;4.20;99.90;;;;;;5037156;28;20208;-46
2021/12/08 09:42:50;;;;;;;3.23;2.60;;;4.20;99.90;;;;;;5026798;28;20212;-46
2021/12/08 09:45:23;;;;;;;4.70;2.80;;;4.20;99.90;;;;;;5040770;28;20294;-47
2021/12/08 09:47:50;;;;;;;6.67;2.67;;;4.20;99.90;;;;;;5046947;28;20853;-46
2021/12/08 09:50:18;;;;;;;3.30;2.53;;;4.20;99.90;;;;;;5051114;28;20203;-47
2021/12/08 09:52:47;;;;;;;3.77;2.63;;;4.20;99.90;;;;;;5042801;28;21373;-47
2021/12/08 09:55:16;;;;;;;3.30;2.57;;;4.20;99.90;;;;;;5042387;28;20230;-47
2021/12/08 09:57:44;;;;;;;6.00;3.13;;;4.20;99.90;;;;;;5040331;28;20425;-46
2021/12/08 10:00:16;;;;;;;5.30;2.67;;;4.20;99.90;;;;;;5044925;28;20636;-47
2021/12/08 10:02:44;;;;;;;4.43;2.80;;;4.20;99.90;;;;;;5052020;28;20211;-46
2021/12/08 10:05:15;;;;;;;6.20;2.50;;;4.20;99.90;;;;;;5044979;28;20213;-46
2021/12/08 10:07:43;;;;;;;3.00;2.67;;;4.20;99.90;;;;;;5033277;28;20196;-46
2021/12/08 10:10:13;;;;;;;5.23;3.27;;;4.20;99.90;;;;;;5048754;28;21007;-46
2021/12/08 10:12:40;;;;;;;5.23;3.07;;;4.20;99.90;;;;;;5030999;28;20629;-46
2021/12/08 10:15:10;;;;;;;3.43;2.97;;;4.30;99.90;;;;;;5055875;28;20212;-46
2021/12/08 10:17:37;;;;;;;4.67;2.67;;;4.30;99.90;;;;;;5037799;28;20498;-46
2021/12/08 10:20:11;;;;;;;3.30;2.70;;;4.30;99.90;;;;;;5044562;28;20208;-46
2021/12/08 10:22:39;;;;;;;4.80;3.13;;;4.30;99.90;;;;;;5056349;28;20456;-43
2021/12/08 10:25:09;;;;;;;4.57;3.23;;;4.30;99.90;;;;;;5036233;28;20580;-42
2021/12/08 10:28:08;;;;;;;5.90;3.13;;;4.30;99.90;;;;;;5051281;28;20456;-42
2021/12/08 10:30:41;;;;;;;6.00;3.20;;;4.20;99.90;;;;;;5038585;28;20212;-42
2021/12/08 10:33:36;;;;;;;6.93;3.50;;;4.30;99.90;;;;;;5039361;28;20359;-42
2021/12/08 10:36:20;;;;;;;6.30;3.87;;;4.30;99.90;;;;;;5055420;28;20210;-42
2021/12/08 10:38:47;;;;;;;9.00;3.77;;;4.30;99.90;;;;;;5035812;28;20212;-43
2021/12/08 10:41:13;;;;;;;8.27;3.90;;;4.30;99.90;;;;;;5031901;28;20208;-42
2021/12/08 10:43:40;;;;;;;6.83;4.13;;;4.30;99.90;;;;;;5031495;28;20228;-42
2021/12/08 10:46:11;;;;;;;6.30;3.77;;;4.30;99.90;;;;;;5021839;28;20374;-43
2021/12/08 10:48:44;;;;;;;8.73;5.93;;;4.40;99.90;;;;;;5058749;28;20205;-43
2021/12/08 10:54:26;;;;;;;6.20;3.80;;;4.40;99.90;;;;;;5053274;28;20234;-42
2021/12/08 10:56:56;;;;;;;5.13;3.13;;;4.40;99.90;;;;;;5024997;28;20908;-42
2021/12/08 10:59:24;;;;;;;4.00;3.10;;;4.50;99.90;;;;;;5054744;28;20204;-43
2021/12/08 11:01:51;;;;;;;4.73;3.33;;;4.50;99.90;;;;;;5016683;28;20331;-47
2021/12/08 11:04:19;;;;;;;5.87;3.10;;;4.50;99.90;;;;;;5058917;28;20232;-47
2021/12/08 11:06:48;;;;;;;5.17;3.17;;;4.60;99.90;;;;;;5045927;28;20633;-46
2021/12/08 11:09:19;;;;;;;4.87;3.33;;;4.60;99.90;;;;;;5059424;28;20229;-47
2021/12/08 11:11:48;;;;;;;4.50;3.33;;;4.60;99.90;;;;;;5034933;28;20698;-47
2021/12/08 11:14:16;;;;;;;6.60;3.23;;;4.60;99.90;;;;;;5034886;28;20838;-47
2021/12/08 11:16:44;;;;;;;4.37;3.70;;;4.60;99.90;;;;;;5024338;28;20227;-46
2021/12/08 11:19:14;;;;;;;4.73;3.23;;;4.60;99.90;;;;;;5028297;28;20299;-46
2021/12/08 11:21:45;;;;;;;7.10;3.77;;;4.60;99.90;;;;;;5039449;28;20216;-46
2021/12/08 11:24:20;;;;;;;5.87;3.87;;;4.60;99.90;;;;;;5051568;28;20226;-46
2021/12/08 11:26:49;;;;;;;9.37;4.70;;;4.60;99.90;;;;;;5031900;28;20290;-47
2021/12/08 11:29:19;;;;;;;9.20;4.20;;;4.60;99.90;;;;;;5041656;28;20346;-47
2021/12/08 11:31:49;;;;;;;11.37;3.83;;;4.60;99.90;;;;;;5023548;28;20216;-46
2021/12/08 11:34:19;;;;;;;4.40;3.07;;;4.60;99.90;;;;;;5020753;28;20546;-43
2021/12/08 11:36:47;;;;;;;6.47;3.73;;;4.60;99.90;;;;;;5031224;28;20204;-43
2021/12/08 11:39:18;;;;;;;7.73;3.80;;;4.60;99.90;;;;;;5064019;28;20305;-43
2021/12/08 11:41:46;;;;;;;4.57;3.57;;;4.70;99.90;;;;;;5042211;28;20234;-43
2021/12/08 11:44:17;;;;;;;9.33;3.97;;;4.70;99.90;;;;;;5055137;28;20227;-43
2021/12/08 11:46:48;;;;;;;7.67;3.53;;;4.80;99.90;;;;;;5029360;28;20702;-43
2021/12/08 11:49:15;;;;;;;5.60;3.63;;;4.90;99.90;;;;;;5019006;28;21000;-43
2021/12/08 11:51:58;;;;;;;4.03;3.27;;;4.90;99.90;;;;;;5022066;28;20215;-47
2021/12/08 11:54:38;;;;;;;6.20;3.57;;;5.00;99.90;;;;;;5048789;28;20228;-48
2021/12/08 11:57:10;;;;;;;6.17;3.60;;;4.90;99.90;;;;;;5042138;28;20895;-44
2021/12/08 12:00:00;;;;;;;5.90;3.70;;;5.00;99.90;;;;;;5024653;28;20236;-43
2021/12/08 12:02:31;;;;;;;8.53;4.53;;;5.00;99.90;;;;;;5037411;28;20881;-43
2021/12/08 12:04:59;;;;;;;5.47;3.90;;;4.90;99.90;;;;;;5028283;28;20236;-43
2021/12/08 12:07:26;;;;;;;7.47;3.73;;;4.90;99.90;;;;;;5049626;28;20505;-47
2021/12/08 12:09:55;;;;;;;7.30;3.73;;;4.90;99.90;;;;;;5049085;28;20306;-46
2021/12/08 12:12:22;;;;;;;4.33;3.57;;;4.90;99.90;;;;;;5045953;28;20207;-46
2021/12/08 12:14:49;;;;;;;6.10;4.10;;;4.90;99.90;;;;;;5048768;28;20224;-46
2021/12/08 12:17:16;;;;;;;7.30;4.20;;;4.90;99.90;;;;;;5027133;28;20192;-46
2021/12/08 12:19:55;;;;;;;4.33;3.60;;;4.90;99.90;;;;;;5048449;28;20214;-47
2021/12/08 12:22:33;;;;;;;8.03;4.63;;;4.90;99.90;;;;;;5051530;28;22244;-46
2021/12/08 12:25:17;;;;;;;6.70;3.83;;;4.90;99.90;;;;;;5058709;28;20215;-46
2021/12/08 12:27:54;;;;;;;7.30;4.20;;;4.90;99.90;;;;;;5059202;28;20857;-47
2021/12/08 12:30:32;;;;;;;4.90;3.70;;;4.90;99.90;;;;;;5028248;28;20204;-47
2021/12/08 12:32:59;;;;;;;6.70;4.20;;;4.90;99.90;;;;;;5028911;28;20262;-50
2021/12/08 12:35:30;;;;;;;6.23;3.53;;;4.90;99.90;;;;;;5037045;28;21050;-47
2021/12/08 12:38:04;;;;;;;4.07;3.63;;;4.80;99.90;;;;;;5048995;28;20201;-47
2021/12/08 12:40:35;;;;;;;6.50;3.87;;;4.80;99.90;;;;;;5044260;28;21015;-46
2021/12/08 12:43:03;;;;;;;8.13;4.00;;;4.80;99.90;;;;;;5050638;28;20255;-47
2021/12/08 12:45:36;;;;;;;6.50;3.70;;;4.80;99.90;;;;;;5049168;28;20203;-47
2021/12/08 12:48:20;;;;;;;9.50;3.87;;;4.80;99.90;;;;;;5027107;28;20231;-47
2021/12/08 12:50:59;;;;;;;7.77;3.90;;;4.80;99.90;;;;;;5057783;28;20208;-47
2021/12/08 12:53:53;;;;;;;5.87;3.80;;;4.90;99.90;;;;;;5051729;28;20219;-47
2021/12/08 12:56:51;;;;;;;7.57;4.00;;;4.90;99.90;;;;;;5023206;28;20200;-46
2021/12/08 12:59:21;;;;;;;8.03;3.73;;;4.90;99.90;;;;;;5042444;28;20205;-46
2021/12/08 13:02:05;;;;;;;5.73;3.43;;;4.90;99.90;;;;;;5015204;28;20204;-43
2021/12/08 13:04:34;;;;;;;8.77;3.77;;;4.90;99.90;;;;;;5025323;28;20243;-47
2021/12/08 13:07:03;;;;;;;6.70;3.50;;;4.90;99.90;;;;;;5038477;28;20283;-47
2021/12/08 13:09:43;;;;;;;6.50;3.80;;;4.90;99.90;;;;;;5039854;28;20224;-48
2021/12/08 13:12:14;;;;;;;4.80;3.70;;;4.90;99.90;;;;;;5047250;28;20309;-47
2021/12/08 13:14:42;;;;;;;8.27;4.07;;;4.90;99.90;;;;;;5041971;28;21282;-43
2021/12/08 13:17:22;;;;;;;9.03;4.07;;;4.90;99.90;;;;;;5044835;28;20208;-43
2021/12/08 13:19:56;;;;;;;5.87;3.50;;;4.90;99.90;;;;;;5037266;28;20796;-44
2021/12/08 13:22:45;;;;;;;6.00;4.03;;;4.90;99.90;;;;;;5035481;28;20311;-44
2021/12/08 13:25:27;;;;;;;18.80;8.50;;;4.90;99.90;;;;;;5063007;28;20204;-47
2021/12/08 13:28:07;;;;;;;15.23;7.70;;;4.90;99.90;;;;;;5047951;28;20317;-47
2021/12/08 13:30:34;;;;;;;11.87;6.57;;;4.90;99.90;;;;;;5044440;28;20204;-48
2021/12/08 13:33:08;;;;;;;9.73;5.60;;;4.90;99.90;;;;;;5044831;28;20220;-49
2021/12/08 13:35:37;;;;;;;9.37;3.87;;;4.90;99.90;;;;;;5027019;28;20218;-46
2021/12/08 13:38:05;;;;;;;8.13;3.80;;;4.90;99.90;;;;;;5034766;28;20213;-47
2021/12/08 13:40:43;;;;;;;5.67;3.83;;;4.90;99.90;;;;;;5031746;28;20215;-43
2021/12/08 13:43:34;;;;;;;7.67;4.03;;;4.90;99.90;;;;;;5046849;28;20231;-43
2021/12/08 13:46:02;;;;;;;4.57;3.80;;;4.90;99.90;;;;;;5039246;28;20486;-43